Time;durP1;ratioP1;P1;durP2;ratioP2;P2;SDS_P1;SDS_P2;PMS_P1;PMS_P2;Temp;Humidity;BMP_temperature;BMP_pressure;BME280_temperature;BME280_humidity;BME280_pressure;Samples;Min_cycle;Max_cycle;Signal;HPM_P1;HPM_P2
2023/12/06 00:00:35;;;;;;;34.00;16.30;;;;;;;-3.76;81.77;95337.66;106455;1276;22533;-77
2023/12/06 00:03:23;;;;;;;29.60;15.80;;;;;;;-3.79;81.55;95331.91;106608;1276;23608;-78
2023/12/06 00:05:52;;;;;;;32.00;17.00;;;;;;;-3.83;81.69;95334.52;106551;1276;22854;-78
2023/12/06 00:08:20;;;;;;;35.10;18.20;;;;;;;-3.92;81.49;95332.70;106635;1276;24215;-78
2023/12/06 00:10:48;;;;;;;34.10;18.00;;;;;;;-3.96;81.54;95331.70;106618;1276;22531;-77
2023/12/06 00:13:17;;;;;;;33.20;17.50;;;;;;;-4.01;81.63;95328.97;106418;1276;25348;-78
2023/12/06 00:15:45;;;;;;;30.80;17.40;;;;;;;-4.01;81.73;95327.92;106549;1276;25532;-78
2023/12/06 00:18:13;;;;;;;35.70;18.70;;;;;;;-4.01;81.76;95329.48;106645;1276;23988;-78
2023/12/06 00:20:42;;;;;;;29.80;16.30;;;;;;;-4.02;81.87;95327.05;106437;1276;22641;-78
2023/12/06 00:23:10;;;;;;;33.30;18.10;;;;;;;-4.05;81.78;95325.05;106635;1276;24233;-78
2023/12/06 00:25:39;;;;;;;33.80;18.10;;;;;;;-4.09;81.75;95321.66;106431;1276;23144;-78
2023/12/06 00:28:07;;;;;;;36.70;18.20;;;;;;;-4.14;81.64;95324.94;106599;1276;24227;-78
2023/12/06 00:30:36;;;;;;;31.50;18.80;;;;;;;-4.16;81.80;95326.58;106612;1276;22527;-78
2023/12/06 00:33:06;;;;;;;36.60;20.70;;;;;;;-4.18;82.13;95327.20;106757;1276;25423;-78
2023/12/06 00:35:35;;;;;;;35.70;19.10;;;;;;;-4.18;82.28;95329.80;106650;1276;22556;-78
2023/12/06 00:38:03;;;;;;;37.70;20.70;;;;;;;-4.22;82.12;95329.15;106777;1276;25441;-78
2023/12/06 00:40:31;;;;;;;35.90;19.60;;;;;;;-4.23;82.24;95330.29;106887;1276;22642;-77
2023/12/06 00:43:00;;;;;;;36.20;18.60;;;;;;;-4.28;82.14;95332.88;106891;1268;25364;-78
2023/12/06 00:45:29;;;;;;;29.30;17.80;;;;;;;-4.32;82.33;95331.18;106734;1276;22638;-78
2023/12/06 00:47:57;;;;;;;32.50;17.70;;;;;;;-4.37;82.31;95333.24;106606;1276;24395;-78
2023/12/06 00:50:25;;;;;;;43.50;22.40;;;;;;;-4.38;82.42;95335.31;106399;1276;228198;-78
2023/12/06 00:52:54;;;;;;;48.70;26.70;;;;;;;-4.38;82.48;95333.90;106472;1276;24237;-78
2023/12/06 00:55:22;;;;;;;37.00;21.00;;;;;;;-4.36;82.82;95331.05;106890;1276;22529;-78
2023/12/06 00:57:51;;;;;;;44.00;24.60;;;;;;;-4.37;83.25;95327.77;106764;1276;24258;-77
2023/12/06 01:00:19;;;;;;;45.90;24.30;;;;;;;-4.39;83.55;95324.60;106449;1274;22539;-78
2023/12/06 01:02:47;;;;;;;40.50;22.70;;;;;;;-4.40;83.72;95325.62;106639;1276;25377;-78
2023/12/06 01:05:15;;;;;;;45.00;23.70;;;;;;;-4.41;83.20;95326.25;106848;1276;22647;-78
2023/12/06 01:07:43;;;;;;;41.50;21.30;;;;;;;-4.43;83.77;95325.85;106423;1276;22583;-78
2023/12/06 01:10:12;;;;;;;43.00;22.70;;;;;;;-4.44;83.49;95326.16;106744;1276;23045;-78
2023/12/06 01:12:40;;;;;;;41.40;22.40;;;;;;;-4.45;83.36;95328.72;106691;1276;25487;-78
2023/12/06 01:15:09;;;;;;;36.90;21.10;;;;;;;-4.42;83.60;95322.11;106477;1276;24277;-78
2023/12/06 01:17:37;;;;;;;39.60;20.60;;;;;;;-4.36;83.86;95325.60;106522;1276;25439;-78
2023/12/06 01:20:06;;;;;;;42.40;21.70;;;;;;;-4.29;84.19;95323.23;106563;1276;24056;-78
2023/12/06 01:22:35;;;;;;;36.50;20.50;;;;;;;-4.24;84.57;95316.35;106561;1276;24537;-78
2023/12/06 01:25:03;;;;;;;36.70;20.50;;;;;;;-4.15;84.82;95315.11;106572;1276;22553;-78
2023/12/06 01:27:31;;;;;;;37.90;20.60;;;;;;;-4.09;84.59;95311.52;106616;1276;22553;-78
2023/12/06 01:30:00;;;;;;;33.60;20.30;;;;;;;-4.05;84.52;95308.73;106827;1276;22664;-78
2023/12/06 01:32:40;;;;;;;33.20;19.00;;;;;;;-4.06;84.19;95309.38;106729;1276;23021;-78
2023/12/06 01:35:09;;;;;;;38.10;18.70;;;;;;;-4.08;84.07;95313.29;106804;1276;22626;-78
2023/12/06 01:37:37;;;;;;;28.50;16.80;;;;;;;-4.15;83.71;95312.52;106334;1276;24414;-78
2023/12/06 01:40:06;;;;;;;30.10;16.20;;;;;;;-4.20;84.03;95308.09;106457;1276;24474;-77
2023/12/06 01:42:35;;;;;;;31.60;17.30;;;;;;;-4.19;84.48;95307.78;106613;1276;24262;-78
2023/12/06 01:45:04;;;;;;;30.20;16.80;;;;;;;-4.22;83.95;95305.27;106662;1276;25315;-78
2023/12/06 01:47:34;;;;;;;26.80;15.90;;;;;;;-4.26;83.96;95298.78;106840;1273;22534;-78
2023/12/06 01:50:04;;;;;;;28.40;16.50;;;;;;;-4.27;83.73;95295.96;106862;1276;22527;-78
2023/12/06 01:52:34;;;;;;;26.50;16.10;;;;;;;-4.31;84.06;95294.50;106708;1276;22526;-78
2023/12/06 01:55:03;;;;;;;28.10;16.90;;;;;;;-4.30;84.16;95293.32;106584;1276;25502;-78
2023/12/06 01:57:33;;;;;;;22.00;12.40;;;;;;;-4.30;84.28;95290.21;106410;1267;25252;-78
2023/12/06 02:00:04;;;;;;;28.70;16.00;;;;;;;-4.30;84.42;95290.22;106608;1276;22545;-78
2023/12/06 02:02:38;;;;;;;46.30;22.30;;;;;;;-4.36;84.22;95290.04;106656;1276;22691;-78
2023/12/06 02:05:08;;;;;;;36.40;18.20;;;;;;;-4.40;84.15;95294.54;106549;1276;24235;-78
2023/12/06 02:07:38;;;;;;;32.60;17.50;;;;;;;-4.41;84.20;95295.69;106759;1276;24314;-78
2023/12/06 02:10:07;;;;;;;24.50;13.50;;;;;;;-4.46;84.32;95299.14;106658;1276;24383;-78
2023/12/06 02:12:35;;;;;;;26.60;15.20;;;;;;;-4.49;84.07;95298.50;106711;1276;24215;-78
2023/12/06 02:15:04;;;;;;;20.70;12.40;;;;;;;-4.50;84.37;95300.88;106460;1276;25230;-78
2023/12/06 02:17:33;;;;;;;29.80;15.50;;;;;;;-4.56;84.68;95294.52;106585;1276;22559;-78
2023/12/06 02:20:03;;;;;;;36.40;19.70;;;;;;;-4.62;85.65;95294.29;106639;1276;22527;-78
2023/12/06 02:22:32;;;;;;;35.60;18.30;;;;;;;-4.66;85.31;95289.70;106597;1276;25415;-78
2023/12/06 02:25:02;;;;;;;38.40;22.20;;;;;;;-4.69;85.00;95289.92;106676;1276;22581;-78
2023/12/06 02:27:31;;;;;;;34.30;16.90;;;;;;;-4.72;85.02;95286.05;106733;1276;23279;-78
2023/12/06 02:29:59;;;;;;;31.20;17.80;;;;;;;-4.75;85.19;95288.55;106699;1276;22541;-78
2023/12/06 02:32:27;;;;;;;33.80;18.30;;;;;;;-4.76;85.55;95289.54;106763;1276;22523;-78
2023/12/06 02:35:00;;;;;;;40.70;19.20;;;;;;;-4.78;85.50;95292.55;106670;1276;23334;-77
2023/12/06 02:37:29;;;;;;;30.90;16.30;;;;;;;-4.83;85.50;95286.55;106648;1276;22561;-78
2023/12/06 02:40:01;;;;;;;28.10;14.80;;;;;;;-4.89;85.19;95283.60;106648;1276;23939;-78
2023/12/06 02:42:29;;;;;;;28.60;15.20;;;;;;;-4.90;85.24;95281.17;106680;1276;23898;-78
2023/12/06 02:44:57;;;;;;;38.50;17.50;;;;;;;-4.90;85.04;95275.83;106514;1276;22670;-78
2023/12/06 02:47:26;;;;;;;35.70;18.40;;;;;;;-4.89;84.93;95277.78;106740;1276;24411;-78
2023/12/06 02:49:54;;;;;;;46.70;24.10;;;;;;;-4.87;85.03;95276.83;106748;1276;23982;-78
2023/12/06 02:52:23;;;;;;;69.70;31.50;;;;;;;-4.87;85.68;95277.48;106640;1273;22527;-78
2023/12/06 02:54:51;;;;;;;88.30;40.10;;;;;;;-4.90;86.20;95275.66;106655;1276;24212;-78
2023/12/06 02:57:19;;;;;;;77.50;38.00;;;;;;;-4.92;86.36;95275.60;106697;1276;22530;-78
2023/12/06 02:59:48;;;;;;;60.90;31.20;;;;;;;-4.92;86.30;95272.67;106674;1260;24233;-78
2023/12/06 03:02:16;;;;;;;72.10;33.10;;;;;;;-4.92;86.50;95268.58;106606;1276;22547;-78
2023/12/06 03:04:44;;;;;;;79.70;35.50;;;;;;;-4.90;86.49;95262.27;106592;1276;22551;-78
2023/12/06 03:07:13;;;;;;;85.20;36.60;;;;;;;-4.85;86.44;95262.81;106496;1276;23496;-78
2023/12/06 03:09:41;;;;;;;59.90;30.10;;;;;;;-4.78;86.51;95264.77;106739;1276;22531;-78
2023/12/06 03:12:10;;;;;;;67.50;32.60;;;;;;;-4.77;86.37;95262.73;106621;1276;25699;-78
2023/12/06 03:14:38;;;;;;;57.30;28.30;;;;;;;-4.77;85.78;95258.94;106519;1276;24405;-78
2023/12/06 03:17:06;;;;;;;61.20;29.40;;;;;;;-4.74;85.71;95260.41;106647;1276;22638;-77
2023/12/06 03:19:34;;;;;;;46.30;23.90;;;;;;;-4.73;85.61;95257.71;106756;1276;25520;-78
2023/12/06 03:22:03;;;;;;;43.40;22.10;;;;;;;-4.70;85.71;95256.79;106611;1276;22535;-78
2023/12/06 03:24:31;;;;;;;41.00;19.90;;;;;;;-4.61;86.25;95259.48;106630;1276;22540;-78
2023/12/06 03:26:59;;;;;;;35.10;19.20;;;;;;;-4.45;86.33;95253.69;106696;1276;24412;-77
2023/12/06 03:29:28;;;;;;;39.80;21.50;;;;;;;-4.44;85.12;95251.31;106714;1276;25247;-78
2023/12/06 03:31:56;;;;;;;39.70;20.90;;;;;;;-4.53;84.56;95250.66;106464;1276;24291;-78
2023/12/06 03:34:24;;;;;;;45.80;22.30;;;;;;;-4.61;84.57;95252.13;106580;1276;22568;-78
2023/12/06 03:36:52;;;;;;;41.00;20.00;;;;;;;-4.60;85.15;95253.54;106579;1276;22579;-78
2023/12/06 03:39:21;;;;;;;37.60;19.70;;;;;;;-4.62;84.75;95253.11;106452;1259;25749;-78
2023/12/06 03:41:50;;;;;;;34.50;18.30;;;;;;;-4.67;84.78;95252.92;106603;1276;25698;-78
2023/12/06 03:44:18;;;;;;;33.80;19.00;;;;;;;-4.76;84.75;95255.38;106590;1276;24423;-78
2023/12/06 03:46:46;;;;;;;42.00;21.10;;;;;;;-4.80;85.12;95255.80;106475;1276;24349;-78
2023/12/06 03:49:14;;;;;;;44.60;23.20;;;;;;;-4.76;85.44;95252.80;106592;1276;24225;-78
2023/12/06 03:51:43;;;;;;;38.80;20.10;;;;;;;-4.74;85.47;95253.23;106618;1276;24296;-78
2023/12/06 03:54:11;;;;;;;39.50;20.80;;;;;;;-4.77;85.17;95249.17;106550;1276;22538;-78
2023/12/06 03:56:40;;;;;;;46.80;21.60;;;;;;;-4.77;85.22;95253.80;106639;1276;25423;-77
2023/12/06 03:59:08;;;;;;;37.60;20.60;;;;;;;-4.78;85.25;95251.36;106606;1276;23303;-78
2023/12/06 04:01:43;;;;;;;41.10;20.80;;;;;;;-4.86;84.69;95253.00;106657;1276;25250;-78
2023/12/06 04:04:12;;;;;;;40.30;20.00;;;;;;;-4.91;85.06;95249.56;106706;1276;25300;-78
2023/12/06 04:06:41;;;;;;;40.70;20.70;;;;;;;-4.95;85.02;95252.50;106608;1276;25677;-78
2023/12/06 04:09:10;;;;;;;33.50;17.50;;;;;;;-5.01;85.19;95250.60;106630;1276;24296;-78
2023/12/06 04:11:39;;;;;;;41.50;19.40;;;;;;;-5.06;85.54;95244.92;106464;1275;24227;-78
2023/12/06 04:14:07;;;;;;;38.60;19.90;;;;;;;-5.09;85.65;95243.10;106703;1276;22645;-76
2023/12/06 04:16:37;;;;;;;44.80;21.60;;;;;;;-5.12;85.53;95245.91;106745;1276;22533;-76
2023/12/06 04:19:05;;;;;;;45.50;22.00;;;;;;;-5.15;85.63;95248.39;106722;1276;23881;-77
2023/12/06 04:21:33;;;;;;;37.10;19.90;;;;;;;-5.20;85.60;95247.52;106541;1276;24115;-76
2023/12/06 04:24:02;;;;;;;35.40;17.10;;;;;;;-5.23;85.39;95240.39;106612;1276;22523;-76
2023/12/06 04:26:30;;;;;;;32.90;16.90;;;;;;;-5.24;85.77;95236.25;106591;1276;24279;-77
2023/12/06 04:28:59;;;;;;;32.10;17.00;;;;;;;-5.22;85.71;95237.88;106666;1276;24120;-77
2023/12/06 04:31:27;;;;;;;31.70;15.80;;;;;;;-5.21;85.98;95237.55;106358;1276;22524;-77
2023/12/06 04:33:55;;;;;;;34.70;18.50;;;;;;;-5.24;85.93;95233.86;106470;1276;24525;-77
2023/12/06 04:36:23;;;;;;;48.20;22.50;;;;;;;-5.28;86.02;95228.18;106587;1276;25253;-77
2023/12/06 04:38:51;;;;;;;46.90;20.80;;;;;;;-5.29;86.06;95232.44;106429;1276;22549;-77
2023/12/06 04:41:20;;;;;;;51.20;26.00;;;;;;;-5.29;86.22;95233.98;106754;1276;25414;-77
2023/12/06 04:43:48;;;;;;;64.50;27.80;;;;;;;-5.31;85.99;95230.30;106753;1276;25680;-77
2023/12/06 04:46:16;;;;;;;72.50;31.50;;;;;;;-5.36;86.07;95230.31;106474;1276;25363;-77
2023/12/06 04:48:44;;;;;;;81.00;33.90;;;;;;;-5.40;86.07;95225.52;106608;1276;22520;-77
2023/12/06 04:51:12;;;;;;;65.30;29.20;;;;;;;-5.44;86.40;95224.55;106612;1276;22501;-77
2023/12/06 04:53:41;;;;;;;55.20;25.20;;;;;;;-5.46;86.24;95223.80;106483;1276;25439;-77
2023/12/06 04:56:11;;;;;;;37.70;20.70;;;;;;;-5.47;86.21;95221.21;106718;1276;22656;-77
2023/12/06 04:58:40;;;;;;;27.50;15.30;;;;;;;-5.44;86.20;95220.77;106728;1276;22530;-77
2023/12/06 05:01:08;;;;;;;22.70;11.80;;;;;;;-5.39;86.17;95218.71;106594;1266;22524;-77
2023/12/06 05:03:37;;;;;;;23.80;13.00;;;;;;;-5.39;86.31;95212.04;106456;1276;22640;-77
2023/12/06 05:06:06;;;;;;;25.80;14.00;;;;;;;-5.41;86.29;95204.76;106661;1276;24528;-77
2023/12/06 05:08:34;;;;;;;48.40;25.50;;;;;;;-5.44;86.27;95204.00;106578;1276;25252;-77
2023/12/06 05:11:03;;;;;;;52.70;25.60;;;;;;;-5.47;86.51;95204.04;106453;1276;25521;-77
2023/12/06 05:13:31;;;;;;;48.30;24.40;;;;;;;-5.51;86.45;95203.39;106792;1276;22643;-77
2023/12/06 05:15:59;;;;;;;41.40;22.00;;;;;;;-5.54;86.33;95204.46;106617;1276;22534;-77
2023/12/06 05:18:27;;;;;;;33.20;17.00;;;;;;;-5.54;86.12;95198.64;106510;1276;22530;-77
2023/12/06 05:20:56;;;;;;;28.20;14.40;;;;;;;-5.52;86.59;95200.27;106673;1276;23832;-77
2023/12/06 05:23:24;;;;;;;41.50;19.00;;;;;;;-5.50;86.53;95199.15;106587;1276;25371;-77
2023/12/06 05:25:52;;;;;;;37.70;17.70;;;;;;;-5.46;86.47;95193.45;106563;1276;25436;-77
2023/12/06 05:28:20;;;;;;;31.60;15.70;;;;;;;-5.42;86.63;95195.97;106591;1276;25371;-77
2023/12/06 05:30:49;;;;;;;32.90;16.80;;;;;;;-5.40;86.58;95195.73;106555;1276;22564;-77
2023/12/06 05:33:18;;;;;;;29.60;15.60;;;;;;;-5.38;86.36;95198.54;106531;1276;23663;-77
2023/12/06 05:35:47;;;;;;;22.20;11.60;;;;;;;-5.35;86.61;95195.73;106562;1276;22528;-77
2023/12/06 05:38:15;;;;;;;100.40;45.30;;;;;;;-5.29;86.53;95194.05;106733;1276;25374;-77
2023/12/06 05:40:43;;;;;;;80.80;36.80;;;;;;;-5.22;86.38;95194.81;106836;1276;22527;-77
2023/12/06 05:43:11;;;;;;;48.00;23.40;;;;;;;-5.19;86.30;95198.67;106754;1276;25358;-77
2023/12/06 05:45:40;;;;;;;44.50;23.50;;;;;;;-5.16;86.29;95192.27;106547;1276;22523;-78
2023/12/06 05:48:08;;;;;;;51.20;25.00;;;;;;;-5.07;86.43;95189.66;106800;1276;25083;-78
2023/12/06 05:50:37;;;;;;;44.10;22.70;;;;;;;-5.06;86.00;95190.20;106785;1276;24274;-77
2023/12/06 05:53:05;;;;;;;29.30;15.10;;;;;;;-5.02;86.22;95190.70;106795;1276;23013;-78
2023/12/06 05:55:33;;;;;;;36.60;20.00;;;;;;;-4.97;86.16;95189.31;106765;1276;22539;-77
2023/12/06 05:58:02;;;;;;;40.40;21.60;;;;;;;-4.94;85.81;95192.49;106641;1276;24401;-76
2023/12/06 06:00:31;;;;;;;61.10;29.70;;;;;;;-4.93;85.84;95191.68;106622;1276;22803;-78
2023/12/06 06:02:59;;;;;;;60.60;29.40;;;;;;;-4.85;85.97;95197.64;106515;1276;23990;-79
2023/12/06 06:05:28;;;;;;;56.80;29.60;;;;;;;-4.81;85.84;95197.58;106769;1276;22991;-77
2023/12/06 06:07:58;;;;;;;76.10;36.20;;;;;;;-4.69;85.97;95195.55;106754;1276;22646;-77
2023/12/06 06:10:26;;;;;;;94.40;46.50;;;;;;;-4.62;85.46;95194.76;106846;1276;22764;-77
2023/12/06 06:12:54;;;;;;;111.80;53.80;;;;;;;-4.64;84.13;95195.90;106663;1276;24236;-79
2023/12/06 06:15:23;;;;;;;108.70;52.30;;;;;;;-4.69;83.78;95194.54;106652;1276;23914;-78
2023/12/06 06:17:51;;;;;;;103.90;49.20;;;;;;;-4.73;83.16;95199.55;106676;1276;25288;-79
2023/12/06 06:20:19;;;;;;;82.40;39.50;;;;;;;-4.83;83.01;95196.14;106678;1276;22930;-77
2023/12/06 06:22:48;;;;;;;82.70;38.50;;;;;;;-4.86;83.63;95196.39;106606;1276;22552;-77
2023/12/06 06:25:16;;;;;;;54.40;28.70;;;;;;;-4.82;84.19;95200.64;106574;1276;25344;-77
2023/12/06 06:27:44;;;;;;;61.40;30.60;;;;;;;-4.85;84.41;95199.33;106593;1274;25417;-77
2023/12/06 06:30:13;;;;;;;76.00;39.50;;;;;;;-4.81;84.78;95198.42;106541;1276;23918;-77
2023/12/06 06:32:42;;;;;;;75.20;38.60;;;;;;;-4.79;84.79;95202.61;106710;1276;25421;-78
2023/12/06 06:35:11;;;;;;;71.90;38.60;;;;;;;-4.81;84.66;95202.92;106510;1276;25369;-80
2023/12/06 06:37:39;;;;;;;71.70;38.50;;;;;;;-4.80;84.59;95204.81;106551;1276;24512;-80
2023/12/06 06:40:08;;;;;;;76.60;40.80;;;;;;;-4.76;84.62;95208.05;106559;1276;22533;-77
2023/12/06 06:42:36;;;;;;;81.60;42.00;;;;;;;-4.75;84.57;95205.14;106610;1276;24395;-79
2023/12/06 06:45:05;;;;;;;124.10;60.50;;;;;;;-4.76;84.54;95206.83;106691;1276;22619;-82
2023/12/06 06:47:36;;;;;;;116.00;54.60;;;;;;;-4.79;84.42;95201.09;106701;1276;22647;-82
2023/12/06 06:50:05;;;;;;;95.30;46.50;;;;;;;-4.78;84.70;95201.11;106649;1276;24347;-82
2023/12/06 06:52:37;;;;;;;100.10;50.20;;;;;;;-4.78;84.92;95204.71;106730;1276;24062;-79
2023/12/06 06:55:07;;;;;;;84.60;42.50;;;;;;;-4.72;85.31;95209.35;106735;1276;25498;-79
2023/12/06 06:57:35;;;;;;;91.70;46.20;;;;;;;-4.65;85.46;95207.87;106801;1275;24975;-77
2023/12/06 07:00:06;;;;;;;92.30;48.20;;;;;;;-4.58;85.60;95206.73;106673;1275;22647;-79
2023/12/06 07:02:35;;;;;;;80.80;41.10;;;;;;;-4.51;85.67;95207.13;106750;1275;24254;-78
2023/12/06 07:05:04;;;;;;;86.40;44.50;;;;;;;-4.45;85.58;95207.34;106680;1275;25528;-80
2023/12/06 07:07:32;;;;;;;80.80;39.80;;;;;;;-4.38;85.74;95209.83;106693;1275;25382;-79
2023/12/06 07:10:04;;;;;;;72.90;38.00;;;;;;;-4.32;85.68;95209.45;106705;1275;22531;-77
2023/12/06 07:12:32;;;;;;;92.70;44.70;;;;;;;-4.26;85.76;95210.53;106748;1275;24363;-79
2023/12/06 07:15:01;;;;;;;113.70;53.50;;;;;;;-4.19;86.03;95204.91;106742;1275;25429;-78
2023/12/06 07:17:32;;;;;;;139.10;66.80;;;;;;;-4.12;86.13;95200.13;106762;1275;22653;-77
2023/12/06 07:20:00;;;;;;;151.70;81.40;;;;;;;-4.05;85.93;95201.72;106818;1275;22948;-77
2023/12/06 07:22:28;;;;;;;142.30;66.40;;;;;;;-3.98;86.07;95199.02;106668;1275;24258;-77
2023/12/06 07:24:57;;;;;;;103.50;54.40;;;;;;;-3.89;86.38;95199.29;106657;1275;22524;-78
2023/12/06 07:27:25;;;;;;;95.40;54.50;;;;;;;-3.81;86.42;95200.90;106698;1275;24254;-77
2023/12/06 07:29:54;;;;;;;95.60;53.00;;;;;;;-3.72;86.58;95195.49;106634;1275;24225;-78
2023/12/06 07:32:22;;;;;;;80.00;44.30;;;;;;;-3.63;86.53;95200.20;106740;1275;24491;-76
2023/12/06 07:34:50;;;;;;;55.80;32.40;;;;;;;-3.54;86.56;95201.52;106664;1275;22809;-78
2023/12/06 07:37:23;;;;;;;36.10;23.60;;;;;;;-3.43;86.50;95203.36;106583;1275;24392;-78
2023/12/06 07:39:52;;;;;;;31.40;18.70;;;;;;;-3.34;86.45;95208.44;106692;1275;24243;-80
2023/12/06 07:42:20;;;;;;;28.40;17.30;;;;;;;-3.25;86.41;95201.30;106664;1275;22530;-78
2023/12/06 07:44:48;;;;;;;27.80;16.20;;;;;;;-3.16;86.36;95202.06;106754;1275;24225;-79
2023/12/06 07:47:17;;;;;;;39.70;22.20;;;;;;;-3.09;86.15;95203.42;106586;1264;22523;-79
2023/12/06 07:49:46;;;;;;;37.30;22.40;;;;;;;-3.04;86.09;95196.73;106648;1275;25439;-79
2023/12/06 07:52:15;;;;;;;46.50;23.40;;;;;;;-2.97;86.18;95196.71;106650;1271;22531;-80
2023/12/06 07:54:43;;;;;;;45.90;22.10;;;;;;;-2.91;86.03;95197.89;106702;1275;24237;-79
2023/12/06 07:57:12;;;;;;;45.90;23.20;;;;;;;-2.85;85.89;95198.77;106641;1275;22773;-78
2023/12/06 07:59:43;;;;;;;51.20;30.30;;;;;;;-2.78;85.81;95200.65;106850;1275;22521;-78
2023/12/06 08:02:12;;;;;;;51.40;28.90;;;;;;;-2.72;85.71;95203.38;106784;1275;23325;-81
2023/12/06 08:04:40;;;;;;;63.70;33.10;;;;;;;-2.67;85.58;95202.31;106874;1275;24074;-78
2023/12/06 08:07:08;;;;;;;48.10;27.50;;;;;;;-2.59;85.62;95200.45;106757;1275;25285;-78
2023/12/06 08:09:39;;;;;;;52.10;27.90;;;;;;;-2.48;85.60;95198.65;106900;1275;23710;-79
2023/12/06 08:12:07;;;;;;;42.00;22.90;;;;;;;-2.38;85.41;95197.86;106619;1275;22549;-78
2023/12/06 08:14:39;;;;;;;41.00;22.20;;;;;;;-2.28;85.43;95190.88;106624;1275;24396;-78
2023/12/06 08:17:08;;;;;;;43.20;24.40;;;;;;;-2.14;85.43;95191.36;106601;1275;25598;-80
2023/12/06 08:19:36;;;;;;;47.50;26.10;;;;;;;-2.00;85.51;95192.73;106659;1275;22552;-78
2023/12/06 08:22:04;;;;;;;44.60;25.40;;;;;;;-1.84;85.69;95186.89;106737;1275;22639;-79
2023/12/06 08:24:33;;;;;;;34.60;19.70;;;;;;;-1.71;85.32;95186.98;106687;1275;24343;-78
2023/12/06 08:27:01;;;;;;;34.20;21.90;;;;;;;-1.60;84.57;95189.14;106725;1275;24865;-77
2023/12/06 08:29:30;;;;;;;38.30;22.40;;;;;;;-1.55;84.12;95187.70;106755;1275;24300;-81
2023/12/06 08:31:59;;;;;;;39.30;23.30;;;;;;;-1.44;83.99;95188.77;106742;1275;24260;-81
2023/12/06 08:34:27;;;;;;;28.50;16.40;;;;;;;-1.40;83.88;95184.72;106599;1275;22534;-81
2023/12/06 08:36:56;;;;;;;35.90;21.00;;;;;;;-1.24;84.51;95189.19;106625;1275;24686;-80
2023/12/06 08:39:24;;;;;;;51.30;30.80;;;;;;;-1.09;84.09;95188.43;106578;1275;25898;-77
2023/12/06 08:41:52;;;;;;;57.90;31.40;;;;;;;-1.04;83.60;95187.31;106608;1275;25724;-79
2023/12/06 08:44:20;;;;;;;54.30;29.20;;;;;;;-0.95;83.72;95189.40;106677;1275;22533;-81
2023/12/06 08:46:49;;;;;;;56.10;30.10;;;;;;;-0.86;83.28;95187.32;106649;1275;22653;-80
2023/12/06 08:49:17;;;;;;;51.40;26.10;;;;;;;-0.75;83.56;95186.14;106692;1275;22541;-78
2023/12/06 08:51:45;;;;;;;41.30;21.70;;;;;;;-0.58;83.47;95182.46;106710;1275;22530;-79
2023/12/06 08:54:14;;;;;;;30.90;16.60;;;;;;;-0.37;83.07;95175.91;106661;1275;22653;-79
2023/12/06 08:56:42;;;;;;;35.00;20.10;;;;;;;-0.24;80.83;95179.57;106590;1275;22634;-76
2023/12/06 08:59:10;;;;;;;31.50;16.80;;;;;;;-0.13;80.49;95173.70;106733;1275;24377;-80
2023/12/06 09:01:39;;;;;;;27.00;15.40;;;;;;;-0.05;79.63;95169.15;106518;1275;22523;-78
2023/12/06 09:04:09;;;;;;;28.30;15.50;;;;;;;-0.04;78.42;95175.74;106667;1275;24070;-78
2023/12/06 09:06:38;;;;;;;72.60;36.20;;;;;;;0.02;78.95;95166.84;106746;1275;22724;-79
2023/12/06 09:09:07;;;;;;;31.40;17.40;;;;;;;0.12;79.19;95167.69;106658;1275;25369;-78
2023/12/06 09:11:36;;;;;;;35.80;20.90;;;;;;;0.22;79.42;95162.11;106803;1275;24395;-77
2023/12/06 09:14:04;;;;;;;39.80;20.60;;;;;;;0.27;78.75;95160.29;106769;1275;23924;-77
2023/12/06 09:16:33;;;;;;;33.70;18.10;;;;;;;0.34;78.85;95156.57;106675;1275;24355;-75
2023/12/06 09:19:01;;;;;;;28.10;16.50;;;;;;;0.39;78.47;95151.11;106699;1275;26672;-77
2023/12/06 09:21:44;;;;;;;30.40;17.00;;;;;;;0.51;79.19;95150.91;106729;1268;24280;-77
2023/12/06 09:24:13;;;;;;;30.70;17.00;;;;;;;0.62;78.04;95144.99;106765;1269;22545;-78
2023/12/06 09:26:42;;;;;;;31.20;18.20;;;;;;;0.72;77.92;95140.61;107086;1276;22554;-77
2023/12/06 09:29:10;;;;;;;29.80;16.70;;;;;;;0.76;76.78;95135.82;106726;1267;22643;-76
2023/12/06 09:31:39;;;;;;;31.50;17.60;;;;;;;0.82;76.96;95134.84;106659;1273;25358;-78
2023/12/06 09:34:07;;;;;;;30.50;16.90;;;;;;;0.92;76.72;95133.74;106691;1276;22520;-75
2023/12/06 09:36:36;;;;;;;25.90;14.80;;;;;;;1.02;76.19;95131.26;106610;1273;22520;-75
2023/12/06 09:39:04;;;;;;;34.70;18.90;;;;;;;1.18;76.44;95125.34;106599;1258;24241;-74
2023/12/06 09:41:33;;;;;;;32.70;19.50;;;;;;;1.38;75.20;95114.09;106877;1265;22651;-75
2023/12/06 09:44:02;;;;;;;29.80;17.10;;;;;;;1.69;75.00;95107.94;106981;1276;22543;-76
2023/12/06 09:46:30;;;;;;;27.50;15.50;;;;;;;2.07;74.87;95103.17;106546;1276;22529;-73
2023/12/06 09:49:00;;;;;;;33.30;17.10;;;;;;;2.46;73.27;95092.96;106748;1276;24275;-74
2023/12/06 09:51:28;;;;;;;28.00;15.60;;;;;;;2.81;71.71;95090.15;106799;1276;22530;-75
2023/12/06 09:53:57;;;;;;;25.40;14.80;;;;;;;3.14;71.19;95085.20;106930;1276;24396;-77
2023/12/06 09:56:26;;;;;;;28.30;16.20;;;;;;;3.58;70.74;95080.88;106820;1276;22537;-75
2023/12/06 09:58:55;;;;;;;24.50;14.70;;;;;;;3.94;69.81;95073.39;106790;1276;24433;-76
2023/12/06 10:01:23;;;;;;;24.70;13.40;;;;;;;4.21;66.46;95076.29;106742;1276;24623;-76
2023/12/06 10:03:52;;;;;;;29.10;15.70;;;;;;;4.53;66.54;95069.91;106698;1276;25249;-76
2023/12/06 10:06:21;;;;;;;21.30;13.50;;;;;;;5.06;66.32;95062.69;106602;1276;22526;-76
2023/12/06 10:08:54;;;;;;;25.30;14.40;;;;;;;5.20;62.96;95061.56;106582;1276;24201;-76
2023/12/06 10:11:23;;;;;;;26.00;14.20;;;;;;;5.60;63.20;95060.92;106591;1276;23891;-76
2023/12/06 10:13:53;;;;;;;23.30;15.70;;;;;;;6.09;63.14;95052.83;106617;1276;22546;-76
2023/12/06 10:16:22;;;;;;;24.80;13.60;;;;;;;6.47;61.03;95053.30;106652;1276;26707;-76
2023/12/06 10:18:52;;;;;;;20.00;12.70;;;;;;;6.69;60.21;95044.48;106586;1276;25386;-76
2023/12/06 10:21:21;;;;;;;16.70;10.60;;;;;;;7.08;61.94;95042.94;106728;1276;25251;-76
2023/12/06 10:23:55;;;;;;;17.10;10.50;;;;;;;7.53;59.80;95044.89;106739;1276;22596;-76
2023/12/06 10:26:30;;;;;;;14.50;10.70;;;;;;;7.83;58.70;95037.22;106637;1276;24295;-76
2023/12/06 10:29:00;;;;;;;12.90;9.30;;;;;;;8.01;57.32;95033.06;106836;1276;23919;-76
2023/12/06 10:31:42;;;;;;;15.10;9.90;;;;;;;7.93;54.73;95035.13;106683;1276;22652;-76
2023/12/06 10:34:11;;;;;;;16.70;11.10;;;;;;;8.18;54.16;95038.02;106758;1276;22531;-76
2023/12/06 10:36:40;;;;;;;13.40;9.80;;;;;;;8.33;54.47;95039.83;106677;1276;25297;-76
2023/12/06 10:39:14;;;;;;;15.80;9.80;;;;;;;8.55;53.75;95034.38;106556;1276;22576;-76
2023/12/06 10:41:47;;;;;;;12.30;8.80;;;;;;;8.67;51.97;95029.73;106575;1276;24228;-76
2023/12/06 10:44:16;;;;;;;13.80;9.30;;;;;;;8.83;52.37;95030.11;106672;1276;23040;-77
2023/12/06 10:46:46;;;;;;;11.90;9.00;;;;;;;9.27;51.82;95024.79;106545;1276;22537;-76
2023/12/06 10:49:26;;;;;;;14.30;9.70;;;;;;;9.37;49.91;95028.58;106603;1276;25441;-77
2023/12/06 10:51:55;;;;;;;11.90;9.40;;;;;;;9.22;49.90;95026.64;106589;1276;23892;-77
2023/12/06 10:54:25;;;;;;;18.20;10.90;;;;;;;8.94;49.80;95030.41;106564;1276;25536;-77
2023/12/06 10:56:56;;;;;;;20.00;12.50;;;;;;;8.59;50.98;95031.48;106640;1276;22673;-76
2023/12/06 10:59:26;;;;;;;15.40;9.80;;;;;;;8.40;51.73;95036.56;106539;1276;22774;-77
2023/12/06 11:01:57;;;;;;;18.40;10.40;;;;;;;8.27;52.27;95037.67;106676;1276;22536;-76
2023/12/06 11:04:31;;;;;;;14.90;9.30;;;;;;;8.23;52.55;95034.07;106749;1276;22599;-76
2023/12/06 11:07:04;;;;;;;16.70;10.00;;;;;;;7.95;51.91;95031.76;106637;1276;25294;-76
2023/12/06 11:10:08;;;;;;;30.50;17.30;;;;;;;7.64;52.91;95039.29;106587;1276;25651;-76
2023/12/06 11:12:43;;;;;;;;;;;;;;;7.30;54.05;95031.58;106639;1276;24447;-77
2023/12/06 11:15:20;;;;;;;26.60;15.90;;;;;;;7.17;55.40;95031.60;106519;1276;22563;-76
2023/12/06 11:17:51;;;;;;;31.50;19.40;;;;;;;7.22;55.01;95031.18;106589;1276;22664;-76
2023/12/06 11:20:20;;;;;;;55.70;29.80;;;;;;;7.38;55.58;95033.56;106587;1276;26583;-76